sensor_id;sensor_type;location;lat;lon;timestamp;P1;durP1;ratioP1;P2;durP2;ratioP2
11539;SDS011;5826;54.756;9.192;2023-09-19T00:01:32;7.72;;;2.30;;
11539;SDS011;5826;54.756;9.192;2023-09-19T00:03:58;8.57;;;2.30;;
11539;SDS011;5826;54.756;9.192;2023-09-19T00:06:24;9.80;;;2.38;;
11539;SDS011;5826;54.756;9.192;2023-09-19T00:08:51;10.80;;;2.38;;
11539;SDS011;5826;54.756;9.192;2023-09-19T00:11:17;7.32;;;2.42;;
11539;SDS011;5826;54.756;9.192;2023-09-19T00:13:43;11.73;;;2.90;;
11539;SDS011;5826;54.756;9.192;2023-09-19T00:16:09;9.77;;;2.85;;
11539;SDS011;5826;54.756;9.192;2023-09-19T00:18:35;11.25;;;2.80;;
11539;SDS011;5826;54.756;9.192;2023-09-19T00:21:02;12.35;;;2.70;;
11539;SDS011;5826;54.756;9.192;2023-09-19T00:23:30;9.35;;;2.50;;
11539;SDS011;5826;54.756;9.192;2023-09-19T00:25:59;10.00;;;3.03;;
11539;SDS011;5826;54.756;9.192;2023-09-19T00:28:26;9.13;;;2.40;;
11539;SDS011;5826;54.756;9.192;2023-09-19T00:30:52;6.72;;;2.40;;
11539;SDS011;5826;54.756;9.192;2023-09-19T00:33:20;7.30;;;2.25;;
11539;SDS011;5826;54.756;9.192;2023-09-19T00:35:52;8.20;;;2.28;;
11539;SDS011;5826;54.756;9.192;2023-09-19T00:38:20;5.97;;;1.80;;
11539;SDS011;5826;54.756;9.192;2023-09-19T00:40:48;8.85;;;2.25;;
11539;SDS011;5826;54.756;9.192;2023-09-19T00:43:14;11.93;;;2.33;;
11539;SDS011;5826;54.756;9.192;2023-09-19T00:45:42;9.80;;;2.45;;
11539;SDS011;5826;54.756;9.192;2023-09-19T00:48:10;10.10;;;2.33;;
11539;SDS011;5826;54.756;9.192;2023-09-19T00:50:36;8.57;;;2.28;;
11539;SDS011;5826;54.756;9.192;2023-09-19T00:53:06;10.32;;;2.33;;
11539;SDS011;5826;54.756;9.192;2023-09-19T00:55:33;8.35;;;2.20;;
11539;SDS011;5826;54.756;9.192;2023-09-19T00:57:59;4.90;;;1.80;;
11539;SDS011;5826;54.756;9.192;2023-09-19T01:00:25;8.02;;;1.95;;
11539;SDS011;5826;54.756;9.192;2023-09-19T01:02:51;7.95;;;2.35;;
11539;SDS011;5826;54.756;9.192;2023-09-19T01:05:16;8.00;;;2.20;;
11539;SDS011;5826;54.756;9.192;2023-09-19T01:07:43;10.07;;;2.70;;
11539;SDS011;5826;54.756;9.192;2023-09-19T01:10:10;6.65;;;2.03;;
11539;SDS011;5826;54.756;9.192;2023-09-19T01:12:48;7.05;;;2.45;;
11539;SDS011;5826;54.756;9.192;2023-09-19T01:15:35;5.35;;;2.15;;
11539;SDS011;5826;54.756;9.192;2023-09-19T01:20:53;5.18;;;1.90;;
11539;SDS011;5826;54.756;9.192;2023-09-19T01:27:39;6.25;;;2.20;;
11539;SDS011;5826;54.756;9.192;2023-09-19T01:29:45;5.18;;;2.25;;
11539;SDS011;5826;54.756;9.192;2023-09-19T01:32:17;6.70;;;2.25;;
11539;SDS011;5826;54.756;9.192;2023-09-19T01:37:23;4.15;;;1.77;;
11539;SDS011;5826;54.756;9.192;2023-09-19T01:39:55;5.70;;;2.08;;
11539;SDS011;5826;54.756;9.192;2023-09-19T01:42:49;6.85;;;2.10;;
11539;SDS011;5826;54.756;9.192;2023-09-19T01:51:13;6.47;;;1.90;;
11539;SDS011;5826;54.756;9.192;2023-09-19T01:53:50;6.07;;;2.05;;
11539;SDS011;5826;54.756;9.192;2023-09-19T01:56:31;4.70;;;1.70;;
11539;SDS011;5826;54.756;9.192;2023-09-19T01:59:06;5.82;;;2.20;;
11539;SDS011;5826;54.756;9.192;2023-09-19T02:01:35;4.18;;;1.63;;
11539;SDS011;5826;54.756;9.192;2023-09-19T02:04:02;10.38;;;2.40;;
11539;SDS011;5826;54.756;9.192;2023-09-19T02:06:29;3.65;;;1.77;;
11539;SDS011;5826;54.756;9.192;2023-09-19T02:08:54;4.50;;;2.00;;
11539;SDS011;5826;54.756;9.192;2023-09-19T02:11:20;6.95;;;2.03;;
11539;SDS011;5826;54.756;9.192;2023-09-19T02:13:46;4.68;;;1.73;;
11539;SDS011;5826;54.756;9.192;2023-09-19T02:16:11;4.60;;;1.45;;
11539;SDS011;5826;54.756;9.192;2023-09-19T02:18:37;4.70;;;1.70;;
11539;SDS011;5826;54.756;9.192;2023-09-19T02:21:04;6.10;;;1.45;;
11539;SDS011;5826;54.756;9.192;2023-09-19T02:23:31;3.28;;;1.40;;
11539;SDS011;5826;54.756;9.192;2023-09-19T02:25:58;3.88;;;1.30;;
11539;SDS011;5826;54.756;9.192;2023-09-19T02:28:25;4.03;;;1.55;;
11539;SDS011;5826;54.756;9.192;2023-09-19T02:30:54;5.40;;;1.45;;
11539;SDS011;5826;54.756;9.192;2023-09-19T02:33:21;3.00;;;1.65;;
11539;SDS011;5826;54.756;9.192;2023-09-19T02:35:46;4.20;;;1.38;;
11539;SDS011;5826;54.756;9.192;2023-09-19T02:38:12;3.75;;;1.58;;
11539;SDS011;5826;54.756;9.192;2023-09-19T02:40:37;3.67;;;1.63;;
11539;SDS011;5826;54.756;9.192;2023-09-19T02:43:04;4.55;;;1.77;;
11539;SDS011;5826;54.756;9.192;2023-09-19T02:45:30;6.05;;;1.85;;
11539;SDS011;5826;54.756;9.192;2023-09-19T02:47:56;5.32;;;1.80;;
11539;SDS011;5826;54.756;9.192;2023-09-19T02:50:22;4.03;;;1.30;;
11539;SDS011;5826;54.756;9.192;2023-09-19T02:52:47;4.00;;;1.65;;
11539;SDS011;5826;54.756;9.192;2023-09-19T02:55:13;5.80;;;1.40;;
11539;SDS011;5826;54.756;9.192;2023-09-19T02:57:45;4.65;;;1.70;;
11539;SDS011;5826;54.756;9.192;2023-09-19T03:00:19;4.57;;;1.80;;
11539;SDS011;5826;54.756;9.192;2023-09-19T03:02:46;5.45;;;1.75;;
11539;SDS011;5826;54.756;9.192;2023-09-19T03:05:19;3.85;;;1.60;;
11539;SDS011;5826;54.756;9.192;2023-09-19T03:07:46;3.60;;;1.58;;
11539;SDS011;5826;54.756;9.192;2023-09-19T03:10:15;6.13;;;1.80;;
11539;SDS011;5826;54.756;9.192;2023-09-19T03:12:44;5.80;;;2.10;;
11539;SDS011;5826;54.756;9.192;2023-09-19T03:15:09;6.30;;;2.20;;
11539;SDS011;5826;54.756;9.192;2023-09-19T03:17:35;7.13;;;2.35;;
11539;SDS011;5826;54.756;9.192;2023-09-19T03:20:01;8.60;;;2.25;;
11539;SDS011;5826;54.756;9.192;2023-09-19T03:22:29;6.35;;;2.15;;
11539;SDS011;5826;54.756;9.192;2023-09-19T03:24:54;5.47;;;1.80;;
11539;SDS011;5826;54.756;9.192;2023-09-19T03:27:20;5.93;;;2.13;;
11539;SDS011;5826;54.756;9.192;2023-09-19T03:29:45;7.95;;;2.55;;
11539;SDS011;5826;54.756;9.192;2023-09-19T03:32:11;7.07;;;2.60;;
11539;SDS011;5826;54.756;9.192;2023-09-19T03:34:37;6.03;;;2.05;;
11539;SDS011;5826;54.756;9.192;2023-09-19T03:37:05;7.50;;;2.50;;
11539;SDS011;5826;54.756;9.192;2023-09-19T03:39:31;5.53;;;1.77;;
11539;SDS011;5826;54.756;9.192;2023-09-19T03:41:57;6.20;;;2.25;;
11539;SDS011;5826;54.756;9.192;2023-09-19T03:44:22;5.47;;;1.83;;
11539;SDS011;5826;54.756;9.192;2023-09-19T03:46:48;6.45;;;2.10;;
11539;SDS011;5826;54.756;9.192;2023-09-19T03:49:13;6.90;;;1.98;;
11539;SDS011;5826;54.756;9.192;2023-09-19T03:51:39;6.15;;;2.08;;
11539;SDS011;5826;54.756;9.192;2023-09-19T03:54:06;5.32;;;1.92;;
11539;SDS011;5826;54.756;9.192;2023-09-19T03:56:32;7.00;;;2.15;;
11539;SDS011;5826;54.756;9.192;2023-09-19T03:58:57;5.97;;;2.05;;
11539;SDS011;5826;54.756;9.192;2023-09-19T04:01:23;5.70;;;1.95;;
11539;SDS011;5826;54.756;9.192;2023-09-19T04:03:49;5.43;;;1.83;;
11539;SDS011;5826;54.756;9.192;2023-09-19T04:06:16;8.02;;;2.35;;
11539;SDS011;5826;54.756;9.192;2023-09-19T04:08:42;6.35;;;2.03;;
11539;SDS011;5826;54.756;9.192;2023-09-19T04:11:09;8.00;;;2.20;;
11539;SDS011;5826;54.756;9.192;2023-09-19T04:13:35;6.43;;;2.30;;
11539;SDS011;5826;54.756;9.192;2023-09-19T04:16:01;8.10;;;1.95;;
11539;SDS011;5826;54.756;9.192;2023-09-19T04:18:28;4.60;;;1.70;;
11539;SDS011;5826;54.756;9.192;2023-09-19T04:20:57;5.80;;;1.55;;
11539;SDS011;5826;54.756;9.192;2023-09-19T04:23:23;6.68;;;1.70;;
11539;SDS011;5826;54.756;9.192;2023-09-19T04:25:48;5.68;;;1.40;;
11539;SDS011;5826;54.756;9.192;2023-09-19T04:28:14;5.30;;;1.85;;
11539;SDS011;5826;54.756;9.192;2023-09-19T04:30:40;6.60;;;1.83;;
11539;SDS011;5826;54.756;9.192;2023-09-19T04:33:06;6.28;;;1.55;;
11539;SDS011;5826;54.756;9.192;2023-09-19T04:35:32;7.63;;;1.88;;
11539;SDS011;5826;54.756;9.192;2023-09-19T04:37:57;12.10;;;2.28;;
11539;SDS011;5826;54.756;9.192;2023-09-19T04:40:23;5.25;;;1.88;;
11539;SDS011;5826;54.756;9.192;2023-09-19T04:42:54;6.28;;;1.70;;
11539;SDS011;5826;54.756;9.192;2023-09-19T04:45:23;5.82;;;1.90;;
11539;SDS011;5826;54.756;9.192;2023-09-19T04:47:48;6.20;;;1.63;;
11539;SDS011;5826;54.756;9.192;2023-09-19T04:50:14;5.43;;;1.80;;
11539;SDS011;5826;54.756;9.192;2023-09-19T04:52:40;5.78;;;1.88;;
11539;SDS011;5826;54.756;9.192;2023-09-19T04:55:08;3.90;;;1.58;;
11539;SDS011;5826;54.756;9.192;2023-09-19T04:57:41;4.38;;;1.50;;
11539;SDS011;5826;54.756;9.192;2023-09-19T05:00:07;7.45;;;1.75;;
11539;SDS011;5826;54.756;9.192;2023-09-19T05:02:37;4.95;;;1.73;;
11539;SDS011;5826;54.756;9.192;2023-09-19T05:05:03;4.25;;;1.50;;
11539;SDS011;5826;54.756;9.192;2023-09-19T05:07:30;5.05;;;1.42;;
11539;SDS011;5826;54.756;9.192;2023-09-19T05:09:55;6.63;;;1.80;;
11539;SDS011;5826;54.756;9.192;2023-09-19T05:12:20;5.93;;;1.70;;
11539;SDS011;5826;54.756;9.192;2023-09-19T05:14:46;5.60;;;1.88;;
11539;SDS011;5826;54.756;9.192;2023-09-19T05:17:12;7.53;;;1.63;;
11539;SDS011;5826;54.756;9.192;2023-09-19T05:19:38;5.45;;;1.70;;
11539;SDS011;5826;54.756;9.192;2023-09-19T05:22:04;8.27;;;1.98;;
11539;SDS011;5826;54.756;9.192;2023-09-19T05:24:29;9.10;;;2.53;;
11539;SDS011;5826;54.756;9.192;2023-09-19T05:26:55;7.25;;;2.17;;
11539;SDS011;5826;54.756;9.192;2023-09-19T05:29:22;4.70;;;1.90;;
11539;SDS011;5826;54.756;9.192;2023-09-19T05:31:47;4.47;;;1.60;;
11539;SDS011;5826;54.756;9.192;2023-09-19T05:34:14;6.20;;;1.60;;
11539;SDS011;5826;54.756;9.192;2023-09-19T05:36:40;4.65;;;1.30;;
11539;SDS011;5826;54.756;9.192;2023-09-19T05:39:05;3.45;;;1.10;;
11539;SDS011;5826;54.756;9.192;2023-09-19T05:41:34;5.07;;;1.60;;
11539;SDS011;5826;54.756;9.192;2023-09-19T05:44:01;2.67;;;1.13;;
11539;SDS011;5826;54.756;9.192;2023-09-19T05:46:32;4.10;;;1.40;;
11539;SDS011;5826;54.756;9.192;2023-09-19T05:48:57;4.18;;;1.55;;
11539;SDS011;5826;54.756;9.192;2023-09-19T05:51:23;4.30;;;1.40;;
11539;SDS011;5826;54.756;9.192;2023-09-19T05:53:49;3.97;;;1.20;;
11539;SDS011;5826;54.756;9.192;2023-09-19T05:56:15;3.70;;;1.40;;
11539;SDS011;5826;54.756;9.192;2023-09-19T05:58:40;3.92;;;1.48;;
11539;SDS011;5826;54.756;9.192;2023-09-19T06:01:09;5.88;;;1.60;;
11539;SDS011;5826;54.756;9.192;2023-09-19T06:03:35;5.18;;;1.52;;
11539;SDS011;5826;54.756;9.192;2023-09-19T06:06:01;6.78;;;1.98;;
11539;SDS011;5826;54.756;9.192;2023-09-19T06:08:27;3.65;;;1.20;;
11539;SDS011;5826;54.756;9.192;2023-09-19T06:10:53;3.92;;;1.30;;
11539;SDS011;5826;54.756;9.192;2023-09-19T06:13:19;5.82;;;1.40;;
11539;SDS011;5826;54.756;9.192;2023-09-19T06:15:45;4.35;;;1.60;;
11539;SDS011;5826;54.756;9.192;2023-09-19T06:18:12;4.97;;;1.60;;
11539;SDS011;5826;54.756;9.192;2023-09-19T06:20:42;6.20;;;1.83;;
11539;SDS011;5826;54.756;9.192;2023-09-19T06:23:09;5.75;;;1.50;;
11539;SDS011;5826;54.756;9.192;2023-09-19T06:25:35;4.45;;;1.60;;
11539;SDS011;5826;54.756;9.192;2023-09-19T06:28:00;3.95;;;1.50;;
11539;SDS011;5826;54.756;9.192;2023-09-19T06:30:29;5.60;;;1.48;;
11539;SDS011;5826;54.756;9.192;2023-09-19T06:32:59;9.07;;;1.67;;
11539;SDS011;5826;54.756;9.192;2023-09-19T06:35:28;5.15;;;1.55;;
11539;SDS011;5826;54.756;9.192;2023-09-19T06:37:57;6.15;;;1.83;;
11539;SDS011;5826;54.756;9.192;2023-09-19T06:40:23;4.18;;;1.90;;
11539;SDS011;5826;54.756;9.192;2023-09-19T06:42:52;6.63;;;1.52;;
11539;SDS011;5826;54.756;9.192;2023-09-19T06:45:18;4.80;;;1.55;;
11539;SDS011;5826;54.756;9.192;2023-09-19T06:47:49;3.40;;;1.33;;
11539;SDS011;5826;54.756;9.192;2023-09-19T06:50:19;3.00;;;1.08;;
11539;SDS011;5826;54.756;9.192;2023-09-19T06:52:47;5.47;;;1.35;;
11539;SDS011;5826;54.756;9.192;2023-09-19T06:55:15;5.15;;;1.20;;
11539;SDS011;5826;54.756;9.192;2023-09-19T06:57:41;4.45;;;1.20;;
11539;SDS011;5826;54.756;9.192;2023-09-19T07:00:08;5.53;;;1.77;;
11539;SDS011;5826;54.756;9.192;2023-09-19T07:02:39;5.60;;;1.40;;
11539;SDS011;5826;54.756;9.192;2023-09-19T07:05:05;6.75;;;1.40;;
11539;SDS011;5826;54.756;9.192;2023-09-19T07:07:32;3.65;;;1.45;;
11539;SDS011;5826;54.756;9.192;2023-09-19T07:09:59;7.47;;;1.65;;
11539;SDS011;5826;54.756;9.192;2023-09-19T07:12:30;3.60;;;1.13;;
11539;SDS011;5826;54.756;9.192;2023-09-19T07:14:56;6.03;;;1.30;;
11539;SDS011;5826;54.756;9.192;2023-09-19T07:17:22;3.50;;;1.27;;
11539;SDS011;5826;54.756;9.192;2023-09-19T07:19:48;2.83;;;0.80;;
11539;SDS011;5826;54.756;9.192;2023-09-19T07:22:15;6.57;;;1.00;;
11539;SDS011;5826;54.756;9.192;2023-09-19T07:24:40;1.85;;;1.02;;
11539;SDS011;5826;54.756;9.192;2023-09-19T07:27:06;5.18;;;1.23;;
11539;SDS011;5826;54.756;9.192;2023-09-19T07:29:32;2.88;;;0.95;;
11539;SDS011;5826;54.756;9.192;2023-09-19T07:31:57;3.03;;;1.13;;
11539;SDS011;5826;54.756;9.192;2023-09-19T07:34:23;4.22;;;1.45;;
11539;SDS011;5826;54.756;9.192;2023-09-19T07:36:49;6.93;;;1.48;;
11539;SDS011;5826;54.756;9.192;2023-09-19T07:39:15;4.63;;;1.25;;
11539;SDS011;5826;54.756;9.192;2023-09-19T07:41:40;3.78;;;0.90;;
11539;SDS011;5826;54.756;9.192;2023-09-19T07:44:06;3.55;;;1.20;;
11539;SDS011;5826;54.756;9.192;2023-09-19T07:46:32;4.70;;;1.20;;
11539;SDS011;5826;54.756;9.192;2023-09-19T07:48:58;3.58;;;1.40;;
11539;SDS011;5826;54.756;9.192;2023-09-19T07:51:24;5.55;;;1.20;;
11539;SDS011;5826;54.756;9.192;2023-09-19T07:53:49;2.13;;;1.17;;
11539;SDS011;5826;54.756;9.192;2023-09-19T07:56:14;5.45;;;1.10;;
11539;SDS011;5826;54.756;9.192;2023-09-19T07:58:40;5.50;;;1.30;;
11539;SDS011;5826;54.756;9.192;2023-09-19T08:01:09;5.80;;;1.33;;
11539;SDS011;5826;54.756;9.192;2023-09-19T08:03:36;3.63;;;1.50;;
11539;SDS011;5826;54.756;9.192;2023-09-19T08:06:06;3.92;;;1.35;;
11539;SDS011;5826;54.756;9.192;2023-09-19T08:08:36;6.72;;;1.60;;
11539;SDS011;5826;54.756;9.192;2023-09-19T08:11:05;3.33;;;1.33;;
11539;SDS011;5826;54.756;9.192;2023-09-19T08:13:36;5.88;;;1.50;;
11539;SDS011;5826;54.756;9.192;2023-09-19T08:16:03;7.47;;;2.33;;
11539;SDS011;5826;54.756;9.192;2023-09-19T08:18:29;7.25;;;1.80;;
11539;SDS011;5826;54.756;9.192;2023-09-19T08:20:55;3.72;;;1.40;;
11539;SDS011;5826;54.756;9.192;2023-09-19T08:23:23;6.28;;;1.63;;
11539;SDS011;5826;54.756;9.192;2023-09-19T08:25:49;5.32;;;1.67;;
11539;SDS011;5826;54.756;9.192;2023-09-19T08:28:14;4.35;;;1.40;;
11539;SDS011;5826;54.756;9.192;2023-09-19T08:30:44;5.20;;;1.30;;
11539;SDS011;5826;54.756;9.192;2023-09-19T08:33:10;6.40;;;1.65;;
11539;SDS011;5826;54.756;9.192;2023-09-19T08:35:36;5.13;;;1.80;;
11539;SDS011;5826;54.756;9.192;2023-09-19T08:38:04;6.03;;;1.70;;
11539;SDS011;5826;54.756;9.192;2023-09-19T08:40:31;5.90;;;1.40;;
11539;SDS011;5826;54.756;9.192;2023-09-19T08:42:58;6.95;;;1.58;;
11539;SDS011;5826;54.756;9.192;2023-09-19T08:45:25;5.95;;;1.50;;
11539;SDS011;5826;54.756;9.192;2023-09-19T08:50:30;6.40;;;1.73;;
11539;SDS011;5826;54.756;9.192;2023-09-19T08:52:56;5.10;;;1.60;;
11539;SDS011;5826;54.756;9.192;2023-09-19T08:55:28;6.65;;;1.60;;
11539;SDS011;5826;54.756;9.192;2023-09-19T08:57:59;5.78;;;1.60;;
11539;SDS011;5826;54.756;9.192;2023-09-19T09:00:33;7.38;;;1.95;;
11539;SDS011;5826;54.756;9.192;2023-09-19T09:03:01;6.50;;;1.55;;
11539;SDS011;5826;54.756;9.192;2023-09-19T09:05:28;4.88;;;1.40;;
11539;SDS011;5826;54.756;9.192;2023-09-19T09:07:57;9.13;;;1.65;;
11539;SDS011;5826;54.756;9.192;2023-09-19T09:10:24;4.32;;;1.50;;
11539;SDS011;5826;54.756;9.192;2023-09-19T09:12:50;7.30;;;1.95;;
11539;SDS011;5826;54.756;9.192;2023-09-19T09:15:18;3.83;;;1.40;;
11539;SDS011;5826;54.756;9.192;2023-09-19T09:17:47;4.85;;;2.03;;
11539;SDS011;5826;54.756;9.192;2023-09-19T09:20:16;7.00;;;1.95;;
11539;SDS011;5826;54.756;9.192;2023-09-19T09:22:53;8.70;;;2.10;;
11539;SDS011;5826;54.756;9.192;2023-09-19T09:25:20;5.90;;;1.65;;
11539;SDS011;5826;54.756;9.192;2023-09-19T09:27:58;6.25;;;1.70;;
11539;SDS011;5826;54.756;9.192;2023-09-19T09:30:34;5.38;;;1.92;;
11539;SDS011;5826;54.756;9.192;2023-09-19T09:33:08;6.60;;;1.83;;
11539;SDS011;5826;54.756;9.192;2023-09-19T09:35:47;5.32;;;1.45;;
11539;SDS011;5826;54.756;9.192;2023-09-19T09:38:12;7.95;;;2.40;;
11539;SDS011;5826;54.756;9.192;2023-09-19T09:40:51;6.32;;;2.03;;
11539;SDS011;5826;54.756;9.192;2023-09-19T09:43:32;4.38;;;1.80;;
11539;SDS011;5826;54.756;9.192;2023-09-19T09:46:06;8.55;;;1.90;;
11539;SDS011;5826;54.756;9.192;2023-09-19T09:51:39;6.82;;;2.03;;
11539;SDS011;5826;54.756;9.192;2023-09-19T09:54:16;7.18;;;1.95;;
11539;SDS011;5826;54.756;9.192;2023-09-19T09:56:55;7.00;;;2.17;;
11539;SDS011;5826;54.756;9.192;2023-09-19T10:02:37;7.90;;;1.90;;
11539;SDS011;5826;54.756;9.192;2023-09-19T10:05:18;6.88;;;2.03;;
11539;SDS011;5826;54.756;9.192;2023-09-19T10:07:45;10.00;;;2.40;;
11539;SDS011;5826;54.756;9.192;2023-09-19T10:10:29;7.30;;;2.35;;
11539;SDS011;5826;54.756;9.192;2023-09-19T10:12:55;6.38;;;1.90;;
11539;SDS011;5826;54.756;9.192;2023-09-19T10:15:28;7.63;;;2.00;;
11539;SDS011;5826;54.756;9.192;2023-09-19T10:17:57;6.82;;;1.90;;
11539;SDS011;5826;54.756;9.192;2023-09-19T10:20:26;5.82;;;1.77;;
11539;SDS011;5826;54.756;9.192;2023-09-19T10:22:55;8.13;;;2.03;;
11539;SDS011;5826;54.756;9.192;2023-09-19T10:25:26;7.68;;;2.20;;
11539;SDS011;5826;54.756;9.192;2023-09-19T10:27:56;6.45;;;2.00;;
11539;SDS011;5826;54.756;9.192;2023-09-19T10:30:27;11.15;;;2.67;;
11539;SDS011;5826;54.756;9.192;2023-09-19T10:33:02;7.35;;;1.75;;
11539;SDS011;5826;54.756;9.192;2023-09-19T10:35:29;8.60;;;2.55;;
11539;SDS011;5826;54.756;9.192;2023-09-19T10:37:59;10.77;;;2.88;;
11539;SDS011;5826;54.756;9.192;2023-09-19T10:40:29;9.60;;;2.80;;
11539;SDS011;5826;54.756;9.192;2023-09-19T10:43:01;10.90;;;2.67;;
11539;SDS011;5826;54.756;9.192;2023-09-19T10:45:32;9.85;;;3.20;;
11539;SDS011;5826;54.756;9.192;2023-09-19T10:47:59;10.30;;;2.70;;
11539;SDS011;5826;54.756;9.192;2023-09-19T10:50:28;9.00;;;2.40;;
11539;SDS011;5826;54.756;9.192;2023-09-19T10:52:57;12.35;;;2.90;;
11539;SDS011;5826;54.756;9.192;2023-09-19T10:55:29;9.05;;;2.50;;
11539;SDS011;5826;54.756;9.192;2023-09-19T10:57:57;10.02;;;2.92;;
11539;SDS011;5826;54.756;9.192;2023-09-19T11:00:55;12.73;;;2.92;;
11539;SDS011;5826;54.756;9.192;2023-09-19T11:03:25;11.70;;;2.95;;
11539;SDS011;5826;54.756;9.192;2023-09-19T11:06:02;12.70;;;3.17;;
11539;SDS011;5826;54.756;9.192;2023-09-19T11:11:46;9.80;;;2.53;;
11539;SDS011;5826;54.756;9.192;2023-09-19T11:14:16;7.82;;;2.30;;
11539;SDS011;5826;54.756;9.192;2023-09-19T11:30:31;8.32;;;2.50;;
11539;SDS011;5826;54.756;9.192;2023-09-19T11:36:00;7.53;;;2.22;;
11539;SDS011;5826;54.756;9.192;2023-09-19T11:43:45;7.40;;;2.15;;
11539;SDS011;5826;54.756;9.192;2023-09-19T11:46:11;8.80;;;2.45;;
11539;SDS011;5826;54.756;9.192;2023-09-19T11:48:40;7.60;;;2.67;;
11539;SDS011;5826;54.756;9.192;2023-09-19T11:51:17;11.30;;;3.15;;
11539;SDS011;5826;54.756;9.192;2023-09-19T11:53:45;13.00;;;2.83;;
11539;SDS011;5826;54.756;9.192;2023-09-19T11:56:14;10.43;;;2.63;;
11539;SDS011;5826;54.756;9.192;2023-09-19T11:58:42;9.55;;;2.80;;
11539;SDS011;5826;54.756;9.192;2023-09-19T12:01:09;6.75;;;2.08;;
11539;SDS011;5826;54.756;9.192;2023-09-19T12:03:41;8.52;;;2.65;;
11539;SDS011;5826;54.756;9.192;2023-09-19T12:06:12;13.25;;;3.00;;
11539;SDS011;5826;54.756;9.192;2023-09-19T12:08:39;9.13;;;2.53;;
11539;SDS011;5826;54.756;9.192;2023-09-19T12:11:14;8.57;;;2.85;;
11539;SDS011;5826;54.756;9.192;2023-09-19T12:13:50;7.03;;;2.53;;
11539;SDS011;5826;54.756;9.192;2023-09-19T12:16:16;7.93;;;2.83;;
11539;SDS011;5826;54.756;9.192;2023-09-19T12:18:46;9.48;;;2.97;;
11539;SDS011;5826;54.756;9.192;2023-09-19T12:21:22;10.65;;;2.80;;
11539;SDS011;5826;54.756;9.192;2023-09-19T12:26:27;8.13;;;2.40;;
11539;SDS011;5826;54.756;9.192;2023-09-19T12:28:54;9.60;;;2.50;;
11539;SDS011;5826;54.756;9.192;2023-09-19T12:31:21;10.95;;;2.83;;
11539;SDS011;5826;54.756;9.192;2023-09-19T12:33:47;7.30;;;2.35;;
11539;SDS011;5826;54.756;9.192;2023-09-19T12:36:19;6.85;;;2.58;;
11539;SDS011;5826;54.756;9.192;2023-09-19T12:38:54;7.32;;;2.40;;
11539;SDS011;5826;54.756;9.192;2023-09-19T12:41:21;7.30;;;2.50;;
11539;SDS011;5826;54.756;9.192;2023-09-19T12:43:47;9.65;;;2.70;;
11539;SDS011;5826;54.756;9.192;2023-09-19T12:46:13;6.68;;;2.70;;
11539;SDS011;5826;54.756;9.192;2023-09-19T12:48:40;10.52;;;2.80;;
11539;SDS011;5826;54.756;9.192;2023-09-19T12:51:10;10.23;;;3.38;;
11539;SDS011;5826;54.756;9.192;2023-09-19T12:53:41;9.25;;;2.58;;
11539;SDS011;5826;54.756;9.192;2023-09-19T12:56:12;8.32;;;2.33;;
11539;SDS011;5826;54.756;9.192;2023-09-19T12:58:53;6.68;;;2.47;;
11539;SDS011;5826;54.756;9.192;2023-09-19T13:01:28;11.57;;;2.90;;
11539;SDS011;5826;54.756;9.192;2023-09-19T13:04:10;8.15;;;2.80;;
11539;SDS011;5826;54.756;9.192;2023-09-19T13:06:51;8.77;;;2.90;;
11539;SDS011;5826;54.756;9.192;2023-09-19T13:09:19;10.52;;;3.08;;
11539;SDS011;5826;54.756;9.192;2023-09-19T13:11:46;8.45;;;2.53;;
11539;SDS011;5826;54.756;9.192;2023-09-19T13:17:03;9.98;;;2.78;;
11539;SDS011;5826;54.756;9.192;2023-09-19T13:19:45;9.38;;;3.10;;
11539;SDS011;5826;54.756;9.192;2023-09-19T13:25:17;10.20;;;3.03;;
11539;SDS011;5826;54.756;9.192;2023-09-19T13:27:43;8.60;;;2.92;;
11539;SDS011;5826;54.756;9.192;2023-09-19T13:30:11;11.27;;;3.00;;
11539;SDS011;5826;54.756;9.192;2023-09-19T13:32:37;11.15;;;3.28;;
11539;SDS011;5826;54.756;9.192;2023-09-19T13:35:05;7.13;;;2.58;;
11539;SDS011;5826;54.756;9.192;2023-09-19T13:37:33;9.60;;;2.83;;
11539;SDS011;5826;54.756;9.192;2023-09-19T13:40:01;12.10;;;3.28;;
11539;SDS011;5826;54.756;9.192;2023-09-19T13:42:26;8.55;;;2.90;;
11539;SDS011;5826;54.756;9.192;2023-09-19T13:44:54;10.15;;;3.30;;
11539;SDS011;5826;54.756;9.192;2023-09-19T13:47:20;7.95;;;2.72;;
11539;SDS011;5826;54.756;9.192;2023-09-19T13:49:49;7.72;;;3.10;;
11539;SDS011;5826;54.756;9.192;2023-09-19T13:52:17;6.07;;;2.72;;
11539;SDS011;5826;54.756;9.192;2023-09-19T13:54:48;9.77;;;3.17;;
11539;SDS011;5826;54.756;9.192;2023-09-19T13:57:14;11.23;;;3.53;;
11539;SDS011;5826;54.756;9.192;2023-09-19T13:59:41;9.98;;;2.50;;
11539;SDS011;5826;54.756;9.192;2023-09-19T14:02:07;7.03;;;2.83;;
11539;SDS011;5826;54.756;9.192;2023-09-19T14:04:32;9.15;;;2.95;;
11539;SDS011;5826;54.756;9.192;2023-09-19T14:06:59;7.38;;;2.80;;
11539;SDS011;5826;54.756;9.192;2023-09-19T14:09:25;9.32;;;2.85;;
11539;SDS011;5826;54.756;9.192;2023-09-19T14:11:51;8.02;;;2.55;;
11539;SDS011;5826;54.756;9.192;2023-09-19T14:14:18;9.23;;;3.08;;
11539;SDS011;5826;54.756;9.192;2023-09-19T14:16:45;8.88;;;2.75;;
11539;SDS011;5826;54.756;9.192;2023-09-19T14:19:11;7.70;;;2.90;;
11539;SDS011;5826;54.756;9.192;2023-09-19T14:21:36;9.02;;;2.97;;
11539;SDS011;5826;54.756;9.192;2023-09-19T14:24:04;11.27;;;3.13;;
11539;SDS011;5826;54.756;9.192;2023-09-19T14:26:34;9.00;;;2.90;;
11539;SDS011;5826;54.756;9.192;2023-09-19T14:29:00;10.40;;;2.83;;
11539;SDS011;5826;54.756;9.192;2023-09-19T14:31:25;12.23;;;2.92;;
11539;SDS011;5826;54.756;9.192;2023-09-19T14:33:53;10.60;;;3.22;;
11539;SDS011;5826;54.756;9.192;2023-09-19T14:36:21;8.82;;;3.00;;
11539;SDS011;5826;54.756;9.192;2023-09-19T14:38:46;8.45;;;2.75;;
11539;SDS011;5826;54.756;9.192;2023-09-19T14:41:12;8.40;;;2.70;;
11539;SDS011;5826;54.756;9.192;2023-09-19T14:43:38;11.27;;;3.08;;
11539;SDS011;5826;54.756;9.192;2023-09-19T14:46:03;8.40;;;3.08;;
11539;SDS011;5826;54.756;9.192;2023-09-19T14:48:35;9.70;;;2.83;;
11539;SDS011;5826;54.756;9.192;2023-09-19T14:51:05;11.23;;;3.15;;
11539;SDS011;5826;54.756;9.192;2023-09-19T14:53:34;11.80;;;3.35;;
11539;SDS011;5826;54.756;9.192;2023-09-19T14:56:00;10.02;;;2.95;;
11539;SDS011;5826;54.756;9.192;2023-09-19T14:58:28;8.13;;;2.60;;
11539;SDS011;5826;54.756;9.192;2023-09-19T15:01:01;10.68;;;2.80;;
11539;SDS011;5826;54.756;9.192;2023-09-19T15:03:31;9.10;;;2.60;;
11539;SDS011;5826;54.756;9.192;2023-09-19T15:06:01;9.60;;;2.78;;
11539;SDS011;5826;54.756;9.192;2023-09-19T15:08:29;10.23;;;2.97;;
11539;SDS011;5826;54.756;9.192;2023-09-19T15:10:55;9.38;;;3.00;;
11539;SDS011;5826;54.756;9.192;2023-09-19T15:13:23;10.00;;;2.92;;
11539;SDS011;5826;54.756;9.192;2023-09-19T15:15:53;9.68;;;2.72;;
11539;SDS011;5826;54.756;9.192;2023-09-19T15:18:23;10.32;;;2.50;;
11539;SDS011;5826;54.756;9.192;2023-09-19T15:20:48;7.50;;;2.33;;
11539;SDS011;5826;54.756;9.192;2023-09-19T15:23:15;8.90;;;2.83;;
11539;SDS011;5826;54.756;9.192;2023-09-19T15:25:47;11.90;;;3.10;;
11539;SDS011;5826;54.756;9.192;2023-09-19T15:28:14;8.13;;;3.00;;
11539;SDS011;5826;54.756;9.192;2023-09-19T15:30:39;7.10;;;2.67;;
11539;SDS011;5826;54.756;9.192;2023-09-19T15:33:05;11.32;;;3.30;;
11539;SDS011;5826;54.756;9.192;2023-09-19T15:35:30;10.18;;;2.63;;
11539;SDS011;5826;54.756;9.192;2023-09-19T15:37:56;9.18;;;2.95;;
11539;SDS011;5826;54.756;9.192;2023-09-19T15:40:23;12.40;;;3.10;;
11539;SDS011;5826;54.756;9.192;2023-09-19T15:42:49;11.82;;;3.47;;
11539;SDS011;5826;54.756;9.192;2023-09-19T15:45:15;8.68;;;2.80;;
11539;SDS011;5826;54.756;9.192;2023-09-19T15:47:41;10.15;;;2.78;;
11539;SDS011;5826;54.756;9.192;2023-09-19T15:50:08;8.77;;;2.65;;
11539;SDS011;5826;54.756;9.192;2023-09-19T15:52:39;9.63;;;2.78;;
11539;SDS011;5826;54.756;9.192;2023-09-19T15:55:05;9.55;;;2.38;;
11539;SDS011;5826;54.756;9.192;2023-09-19T15:57:36;8.02;;;2.63;;
11539;SDS011;5826;54.756;9.192;2023-09-19T16:00:01;8.77;;;2.63;;
11539;SDS011;5826;54.756;9.192;2023-09-19T16:02:29;7.40;;;2.30;;
11539;SDS011;5826;54.756;9.192;2023-09-19T16:04:55;7.22;;;2.38;;